sensor_id;sensor_type;location;lat;lon;timestamp;temperature;humidity
9885;DHT22;4981;50.966;4.842;2022-10-30T00:01:44;17.00;1.00
9885;DHT22;4981;50.966;4.842;2022-10-30T00:04:11;17.00;1.00
9885;DHT22;4981;50.966;4.842;2022-10-30T00:06:38;17.10;1.00
9885;DHT22;4981;50.966;4.842;2022-10-30T00:09:05;17.00;1.00
9885;DHT22;4981;50.966;4.842;2022-10-30T00:11:32;17.00;1.00
9885;DHT22;4981;50.966;4.842;2022-10-30T00:14:01;16.80;1.00
9885;DHT22;4981;50.966;4.842;2022-10-30T00:16:28;16.60;1.00
9885;DHT22;4981;50.966;4.842;2022-10-30T00:18:55;16.30;1.00
9885;DHT22;4981;50.966;4.842;2022-10-30T00:21:22;16.40;1.00
9885;DHT22;4981;50.966;4.842;2022-10-30T00:23:51;16.10;1.00
9885;DHT22;4981;50.966;4.842;2022-10-30T00:26:20;15.80;1.00
9885;DHT22;4981;50.966;4.842;2022-10-30T00:28:48;16.80;1.00
9885;DHT22;4981;50.966;4.842;2022-10-30T00:31:17;15.50;1.00
9885;DHT22;4981;50.966;4.842;2022-10-30T00:33:48;15.50;1.00
9885;DHT22;4981;50.966;4.842;2022-10-30T00:36:15;15.40;1.00
9885;DHT22;4981;50.966;4.842;2022-10-30T00:38:43;15.20;1.00
9885;DHT22;4981;50.966;4.842;2022-10-30T00:41:13;15.20;1.00
9885;DHT22;4981;50.966;4.842;2022-10-30T00:43:41;15.30;1.00
9885;DHT22;4981;50.966;4.842;2022-10-30T00:46:20;14.70;1.00
9885;DHT22;4981;50.966;4.842;2022-10-30T00:48:53;15.00;1.00
9885;DHT22;4981;50.966;4.842;2022-10-30T00:51:22;15.00;1.00
9885;DHT22;4981;50.966;4.842;2022-10-30T00:53:50;14.90;1.00
9885;DHT22;4981;50.966;4.842;2022-10-30T00:56:19;15.00;1.00
9885;DHT22;4981;50.966;4.842;2022-10-30T00:58:51;15.00;1.00
9885;DHT22;4981;50.966;4.842;2022-10-30T01:01:25;15.10;1.00
9885;DHT22;4981;50.966;4.842;2022-10-30T01:03:55;15.00;1.00
9885;DHT22;4981;50.966;4.842;2022-10-30T01:06:23;14.90;1.00
9885;DHT22;4981;50.966;4.842;2022-10-30T01:08:52;14.80;1.00
9885;DHT22;4981;50.966;4.842;2022-10-30T01:11:20;15.10;1.00
9885;DHT22;4981;50.966;4.842;2022-10-30T01:13:49;15.00;1.00
9885;DHT22;4981;50.966;4.842;2022-10-30T01:19:19;15.20;1.00
9885;DHT22;4981;50.966;4.842;2022-10-30T01:21:58;15.10;1.00
9885;DHT22;4981;50.966;4.842;2022-10-30T01:24:36;15.00;1.00
9885;DHT22;4981;50.966;4.842;2022-10-30T01:27:23;14.90;1.00
9885;DHT22;4981;50.966;4.842;2022-10-30T01:30:02;14.90;1.00
9885;DHT22;4981;50.966;4.842;2022-10-30T01:32:44;14.90;1.00
9885;DHT22;4981;50.966;4.842;2022-10-30T01:35:22;14.70;1.00
9885;DHT22;4981;50.966;4.842;2022-10-30T01:37:56;14.50;1.00
9885;DHT22;4981;50.966;4.842;2022-10-30T01:40:27;14.70;1.00
9885;DHT22;4981;50.966;4.842;2022-10-30T01:42:55;14.70;1.00
9885;DHT22;4981;50.966;4.842;2022-10-30T01:45:29;14.80;1.00
9885;DHT22;4981;50.966;4.842;2022-10-30T01:48:21;14.60;1.00
9885;DHT22;4981;50.966;4.842;2022-10-30T01:50:59;14.50;1.00
9885;DHT22;4981;50.966;4.842;2022-10-30T01:53:40;13.90;1.00
9885;DHT22;4981;50.966;4.842;2022-10-30T01:56:18;14.40;1.00
9885;DHT22;4981;50.966;4.842;2022-10-30T01:58:53;15.10;1.00
9885;DHT22;4981;50.966;4.842;2022-10-30T02:01:23;14.60;1.00
9885;DHT22;4981;50.966;4.842;2022-10-30T02:03:51;14.60;1.00
9885;DHT22;4981;50.966;4.842;2022-10-30T02:06:20;14.60;1.00
9885;DHT22;4981;50.966;4.842;2022-10-30T02:08:47;14.50;1.00
9885;DHT22;4981;50.966;4.842;2022-10-30T02:11:15;14.40;1.00
9885;DHT22;4981;50.966;4.842;2022-10-30T02:13:43;14.50;1.00
9885;DHT22;4981;50.966;4.842;2022-10-30T02:16:10;14.50;1.00
9885;DHT22;4981;50.966;4.842;2022-10-30T02:18:37;14.60;1.00
9885;DHT22;4981;50.966;4.842;2022-10-30T02:21:06;15.00;1.00
9885;DHT22;4981;50.966;4.842;2022-10-30T02:23:34;14.90;1.00
9885;DHT22;4981;50.966;4.842;2022-10-30T02:26:02;14.80;1.00
9885;DHT22;4981;50.966;4.842;2022-10-30T02:28:29;15.00;1.00
9885;DHT22;4981;50.966;4.842;2022-10-30T02:30:56;15.00;1.00
9885;DHT22;4981;50.966;4.842;2022-10-30T02:33:23;15.00;1.00
9885;DHT22;4981;50.966;4.842;2022-10-30T02:35:50;14.80;1.00
9885;DHT22;4981;50.966;4.842;2022-10-30T02:38:19;14.80;1.00
9885;DHT22;4981;50.966;4.842;2022-10-30T02:40:46;14.70;1.00
9885;DHT22;4981;50.966;4.842;2022-10-30T02:43:13;15.00;1.00
9885;DHT22;4981;50.966;4.842;2022-10-30T02:45:40;14.50;1.00
9885;DHT22;4981;50.966;4.842;2022-10-30T02:48:08;14.40;1.00
9885;DHT22;4981;50.966;4.842;2022-10-30T02:50:35;14.20;1.00
9885;DHT22;4981;50.966;4.842;2022-10-30T02:53:02;14.10;1.00
9885;DHT22;4981;50.966;4.842;2022-10-30T02:55:30;14.30;1.00
9885;DHT22;4981;50.966;4.842;2022-10-30T02:57:57;14.20;1.00
9885;DHT22;4981;50.966;4.842;2022-10-30T03:00:24;14.20;1.00
9885;DHT22;4981;50.966;4.842;2022-10-30T03:02:54;14.20;1.00
9885;DHT22;4981;50.966;4.842;2022-10-30T03:05:21;14.50;1.00
9885;DHT22;4981;50.966;4.842;2022-10-30T03:07:48;14.40;1.00
9885;DHT22;4981;50.966;4.842;2022-10-30T03:10:16;14.60;1.00
9885;DHT22;4981;50.966;4.842;2022-10-30T03:12:45;14.50;1.00
9885;DHT22;4981;50.966;4.842;2022-10-30T03:15:12;14.70;1.00
9885;DHT22;4981;50.966;4.842;2022-10-30T03:17:39;14.50;1.00
9885;DHT22;4981;50.966;4.842;2022-10-30T03:20:07;14.30;1.00
9885;DHT22;4981;50.966;4.842;2022-10-30T03:22:34;14.00;1.00
9885;DHT22;4981;50.966;4.842;2022-10-30T03:25:01;13.40;1.00
9885;DHT22;4981;50.966;4.842;2022-10-30T03:27:28;14.50;1.00
9885;DHT22;4981;50.966;4.842;2022-10-30T03:29:57;14.30;1.00
9885;DHT22;4981;50.966;4.842;2022-10-30T03:32:24;14.40;1.00
9885;DHT22;4981;50.966;4.842;2022-10-30T03:34:51;14.50;1.00
9885;DHT22;4981;50.966;4.842;2022-10-30T03:37:17;14.40;1.00
9885;DHT22;4981;50.966;4.842;2022-10-30T03:39:45;14.30;1.00
9885;DHT22;4981;50.966;4.842;2022-10-30T03:42:12;14.40;1.00
9885;DHT22;4981;50.966;4.842;2022-10-30T03:44:39;14.40;1.00
9885;DHT22;4981;50.966;4.842;2022-10-30T03:47:07;14.50;1.00
9885;DHT22;4981;50.966;4.842;2022-10-30T03:49:34;14.40;1.00
9885;DHT22;4981;50.966;4.842;2022-10-30T03:52:01;15.40;1.00
9885;DHT22;4981;50.966;4.842;2022-10-30T03:54:28;14.60;1.00
9885;DHT22;4981;50.966;4.842;2022-10-30T03:56:55;14.60;1.00
9885;DHT22;4981;50.966;4.842;2022-10-30T03:59:23;14.50;1.00
9885;DHT22;4981;50.966;4.842;2022-10-30T04:01:50;14.60;1.00
9885;DHT22;4981;50.966;4.842;2022-10-30T04:04:19;14.60;1.00
9885;DHT22;4981;50.966;4.842;2022-10-30T04:06:47;14.70;1.00
9885;DHT22;4981;50.966;4.842;2022-10-30T04:09:13;14.70;1.00
9885;DHT22;4981;50.966;4.842;2022-10-30T04:11:40;14.80;1.00
9885;DHT22;4981;50.966;4.842;2022-10-30T04:14:08;14.70;1.00
9885;DHT22;4981;50.966;4.842;2022-10-30T04:16:35;14.60;1.00
9885;DHT22;4981;50.966;4.842;2022-10-30T04:19:02;14.60;1.00
9885;DHT22;4981;50.966;4.842;2022-10-30T04:21:31;14.50;1.00
9885;DHT22;4981;50.966;4.842;2022-10-30T04:23:58;14.40;1.00
9885;DHT22;4981;50.966;4.842;2022-10-30T04:26:25;14.30;1.00
9885;DHT22;4981;50.966;4.842;2022-10-30T04:28:53;14.20;1.00
9885;DHT22;4981;50.966;4.842;2022-10-30T04:31:20;14.20;1.00
9885;DHT22;4981;50.966;4.842;2022-10-30T04:33:47;14.00;1.00
9885;DHT22;4981;50.966;4.842;2022-10-30T04:36:14;14.00;1.00
9885;DHT22;4981;50.966;4.842;2022-10-30T04:38:44;14.10;1.00
9885;DHT22;4981;50.966;4.842;2022-10-30T04:41:11;14.00;1.00
9885;DHT22;4981;50.966;4.842;2022-10-30T04:43:37;14.00;1.00
9885;DHT22;4981;50.966;4.842;2022-10-30T04:46:05;13.90;1.00
9885;DHT22;4981;50.966;4.842;2022-10-30T04:48:31;14.00;1.00
9885;DHT22;4981;50.966;4.842;2022-10-30T04:51:00;13.90;1.00
9885;DHT22;4981;50.966;4.842;2022-10-30T04:53:27;14.10;1.00
9885;DHT22;4981;50.966;4.842;2022-10-30T04:55:56;14.10;1.00
9885;DHT22;4981;50.966;4.842;2022-10-30T04:58:23;14.10;1.00
9885;DHT22;4981;50.966;4.842;2022-10-30T05:00:50;14.20;1.00
9885;DHT22;4981;50.966;4.842;2022-10-30T05:03:19;14.30;1.00
9885;DHT22;4981;50.966;4.842;2022-10-30T05:05:47;13.60;1.00
9885;DHT22;4981;50.966;4.842;2022-10-30T05:08:14;14.30;1.00
9885;DHT22;4981;50.966;4.842;2022-10-30T05:10:41;14.20;1.00
9885;DHT22;4981;50.966;4.842;2022-10-30T05:13:11;14.00;1.00
9885;DHT22;4981;50.966;4.842;2022-10-30T05:15:38;14.00;1.00
9885;DHT22;4981;50.966;4.842;2022-10-30T05:18:05;14.00;1.00
9885;DHT22;4981;50.966;4.842;2022-10-30T05:20:32;13.80;1.00
9885;DHT22;4981;50.966;4.842;2022-10-30T05:22:59;13.40;1.00
9885;DHT22;4981;50.966;4.842;2022-10-30T05:25:27;13.40;1.00
9885;DHT22;4981;50.966;4.842;2022-10-30T05:27:57;13.40;1.00
9885;DHT22;4981;50.966;4.842;2022-10-30T05:30:26;13.30;1.00
9885;DHT22;4981;50.966;4.842;2022-10-30T05:32:57;13.40;1.00
9885;DHT22;4981;50.966;4.842;2022-10-30T05:35:24;13.20;1.00
9885;DHT22;4981;50.966;4.842;2022-10-30T05:37:51;13.20;1.00
9885;DHT22;4981;50.966;4.842;2022-10-30T05:40:18;13.10;1.00
9885;DHT22;4981;50.966;4.842;2022-10-30T05:42:45;13.20;1.00
9885;DHT22;4981;50.966;4.842;2022-10-30T05:45:13;13.30;1.00
9885;DHT22;4981;50.966;4.842;2022-10-30T05:47:42;13.30;1.00
9885;DHT22;4981;50.966;4.842;2022-10-30T05:50:09;13.30;1.00
9885;DHT22;4981;50.966;4.842;2022-10-30T05:52:37;13.20;1.00
9885;DHT22;4981;50.966;4.842;2022-10-30T05:55:05;13.20;1.00
9885;DHT22;4981;50.966;4.842;2022-10-30T05:57:32;13.10;1.00
9885;DHT22;4981;50.966;4.842;2022-10-30T05:59:59;13.00;1.00
9885;DHT22;4981;50.966;4.842;2022-10-30T06:02:26;13.10;1.00
9885;DHT22;4981;50.966;4.842;2022-10-30T06:04:55;13.20;1.00
9885;DHT22;4981;50.966;4.842;2022-10-30T06:07:21;12.80;1.00
9885;DHT22;4981;50.966;4.842;2022-10-30T06:09:48;12.80;1.00
9885;DHT22;4981;50.966;4.842;2022-10-30T06:12:15;12.70;1.00
9885;DHT22;4981;50.966;4.842;2022-10-30T06:14:42;12.70;1.00
9885;DHT22;4981;50.966;4.842;2022-10-30T06:17:10;12.50;1.00
9885;DHT22;4981;50.966;4.842;2022-10-30T06:19:36;12.90;1.00
9885;DHT22;4981;50.966;4.842;2022-10-30T06:22:05;12.70;1.00
9885;DHT22;4981;50.966;4.842;2022-10-30T06:24:32;12.60;1.00
9885;DHT22;4981;50.966;4.842;2022-10-30T06:26:59;12.70;1.00
9885;DHT22;4981;50.966;4.842;2022-10-30T06:29:26;12.60;1.00
9885;DHT22;4981;50.966;4.842;2022-10-30T06:31:53;12.50;1.00
9885;DHT22;4981;50.966;4.842;2022-10-30T06:34:20;12.60;1.00
9885;DHT22;4981;50.966;4.842;2022-10-30T06:36:47;12.70;1.00
9885;DHT22;4981;50.966;4.842;2022-10-30T06:39:15;12.70;1.00
9885;DHT22;4981;50.966;4.842;2022-10-30T06:41:42;12.70;1.00
9885;DHT22;4981;50.966;4.842;2022-10-30T06:44:10;12.70;1.00
9885;DHT22;4981;50.966;4.842;2022-10-30T06:46:36;12.70;1.00
9885;DHT22;4981;50.966;4.842;2022-10-30T06:49:03;12.90;1.00
9885;DHT22;4981;50.966;4.842;2022-10-30T06:51:31;12.80;1.00
9885;DHT22;4981;50.966;4.842;2022-10-30T06:53:59;12.90;1.00
9885;DHT22;4981;50.966;4.842;2022-10-30T06:56:27;13.00;1.00
9885;DHT22;4981;50.966;4.842;2022-10-30T06:58:54;13.00;1.00
9885;DHT22;4981;50.966;4.842;2022-10-30T07:01:21;13.00;1.00
9885;DHT22;4981;50.966;4.842;2022-10-30T07:03:48;13.10;1.00
9885;DHT22;4981;50.966;4.842;2022-10-30T07:06:15;13.00;1.00
9885;DHT22;4981;50.966;4.842;2022-10-30T07:08:42;13.00;1.00
9885;DHT22;4981;50.966;4.842;2022-10-30T07:11:09;13.00;1.00
9885;DHT22;4981;50.966;4.842;2022-10-30T07:13:37;13.00;1.00
9885;DHT22;4981;50.966;4.842;2022-10-30T07:16:05;13.00;1.00
9885;DHT22;4981;50.966;4.842;2022-10-30T07:18:32;13.00;1.00
9885;DHT22;4981;50.966;4.842;2022-10-30T07:20:59;13.20;1.00
9885;DHT22;4981;50.966;4.842;2022-10-30T07:23:26;13.20;1.00
9885;DHT22;4981;50.966;4.842;2022-10-30T07:25:53;13.40;1.00
9885;DHT22;4981;50.966;4.842;2022-10-30T07:28:20;13.60;1.00
9885;DHT22;4981;50.966;4.842;2022-10-30T07:30:48;13.60;1.00
9885;DHT22;4981;50.966;4.842;2022-10-30T07:33:15;13.60;1.00
9885;DHT22;4981;50.966;4.842;2022-10-30T07:35:42;13.60;1.00
9885;DHT22;4981;50.966;4.842;2022-10-30T07:38:10;13.70;1.00
9885;DHT22;4981;50.966;4.842;2022-10-30T07:40:38;13.80;1.00
9885;DHT22;4981;50.966;4.842;2022-10-30T07:43:05;13.70;1.00
9885;DHT22;4981;50.966;4.842;2022-10-30T07:45:34;13.80;1.00
9885;DHT22;4981;50.966;4.842;2022-10-30T07:48:03;13.70;1.00
9885;DHT22;4981;50.966;4.842;2022-10-30T07:50:31;13.90;1.00
9885;DHT22;4981;50.966;4.842;2022-10-30T07:52:58;13.90;1.00
9885;DHT22;4981;50.966;4.842;2022-10-30T07:55:25;14.10;1.00
9885;DHT22;4981;50.966;4.842;2022-10-30T07:57:53;13.80;1.00
9885;DHT22;4981;50.966;4.842;2022-10-30T08:00:20;14.30;1.00
9885;DHT22;4981;50.966;4.842;2022-10-30T08:02:48;14.40;1.00
9885;DHT22;4981;50.966;4.842;2022-10-30T08:05:17;14.50;1.00
9885;DHT22;4981;50.966;4.842;2022-10-30T08:07:46;14.50;1.00
9885;DHT22;4981;50.966;4.842;2022-10-30T08:10:14;14.60;1.00
9885;DHT22;4981;50.966;4.842;2022-10-30T08:12:41;14.80;1.00
9885;DHT22;4981;50.966;4.842;2022-10-30T08:15:09;14.80;1.00
9885;DHT22;4981;50.966;4.842;2022-10-30T08:17:41;14.80;1.00
9885;DHT22;4981;50.966;4.842;2022-10-30T08:20:10;14.90;1.00
9885;DHT22;4981;50.966;4.842;2022-10-30T08:22:45;15.50;1.00
9885;DHT22;4981;50.966;4.842;2022-10-30T08:25:13;15.00;1.00
9885;DHT22;4981;50.966;4.842;2022-10-30T08:27:49;14.90;1.00
9885;DHT22;4981;50.966;4.842;2022-10-30T08:30:17;15.10;1.00
9885;DHT22;4981;50.966;4.842;2022-10-30T08:32:45;15.40;1.00
9885;DHT22;4981;50.966;4.842;2022-10-30T08:35:13;15.30;1.00
9885;DHT22;4981;50.966;4.842;2022-10-30T08:37:40;15.20;1.00
9885;DHT22;4981;50.966;4.842;2022-10-30T08:40:10;15.40;1.00
9885;DHT22;4981;50.966;4.842;2022-10-30T08:42:37;15.30;1.00
9885;DHT22;4981;50.966;4.842;2022-10-30T08:45:05;15.30;1.00
9885;DHT22;4981;50.966;4.842;2022-10-30T08:47:33;15.20;1.00
9885;DHT22;4981;50.966;4.842;2022-10-30T08:50:00;15.20;1.00
9885;DHT22;4981;50.966;4.842;2022-10-30T08:52:27;15.20;1.00
9885;DHT22;4981;50.966;4.842;2022-10-30T08:54:54;15.30;1.00
9885;DHT22;4981;50.966;4.842;2022-10-30T08:57:23;15.40;1.00
9885;DHT22;4981;50.966;4.842;2022-10-30T08:59:50;15.50;1.00
9885;DHT22;4981;50.966;4.842;2022-10-30T09:02:17;15.50;1.00
9885;DHT22;4981;50.966;4.842;2022-10-30T09:04:44;15.60;1.00
9885;DHT22;4981;50.966;4.842;2022-10-30T09:07:11;15.60;1.00
9885;DHT22;4981;50.966;4.842;2022-10-30T09:09:38;15.60;1.00
9885;DHT22;4981;50.966;4.842;2022-10-30T09:12:06;15.60;1.00
9885;DHT22;4981;50.966;4.842;2022-10-30T09:14:35;15.60;1.00
9885;DHT22;4981;50.966;4.842;2022-10-30T09:17:03;15.70;1.00
9885;DHT22;4981;50.966;4.842;2022-10-30T09:19:30;15.50;1.00
9885;DHT22;4981;50.966;4.842;2022-10-30T09:21:57;15.60;1.00
9885;DHT22;4981;50.966;4.842;2022-10-30T09:24:24;15.70;1.00
9885;DHT22;4981;50.966;4.842;2022-10-30T09:26:51;14.50;1.00
9885;DHT22;4981;50.966;4.842;2022-10-30T09:29:18;15.70;1.00
9885;DHT22;4981;50.966;4.842;2022-10-30T09:31:47;15.70;1.00
9885;DHT22;4981;50.966;4.842;2022-10-30T09:34:14;15.80;1.00
9885;DHT22;4981;50.966;4.842;2022-10-30T09:36:41;16.00;1.00
9885;DHT22;4981;50.966;4.842;2022-10-30T09:39:11;16.00;1.00
9885;DHT22;4981;50.966;4.842;2022-10-30T09:41:52;16.00;1.00
9885;DHT22;4981;50.966;4.842;2022-10-30T09:44:34;16.30;1.00
9885;DHT22;4981;50.966;4.842;2022-10-30T09:47:11;15.50;1.00
9885;DHT22;4981;50.966;4.842;2022-10-30T09:49:53;16.30;1.00
9885;DHT22;4981;50.966;4.842;2022-10-30T09:52:27;16.20;1.00
9885;DHT22;4981;50.966;4.842;2022-10-30T09:57:50;16.20;1.00
9885;DHT22;4981;50.966;4.842;2022-10-30T10:00:22;16.30;1.00
9885;DHT22;4981;50.966;4.842;2022-10-30T10:03:02;16.40;1.00
9885;DHT22;4981;50.966;4.842;2022-10-30T10:05:40;16.50;1.00
9885;DHT22;4981;50.966;4.842;2022-10-30T10:08:10;16.50;1.00
9885;DHT22;4981;50.966;4.842;2022-10-30T10:10:41;16.70;1.00
9885;DHT22;4981;50.966;4.842;2022-10-30T10:13:25;16.70;1.00
9885;DHT22;4981;50.966;4.842;2022-10-30T10:15:55;16.70;1.00
9885;DHT22;4981;50.966;4.842;2022-10-30T10:18:30;17.20;1.00
9885;DHT22;4981;50.966;4.842;2022-10-30T10:21:06;17.00;1.00
9885;DHT22;4981;50.966;4.842;2022-10-30T10:23:40;17.00;1.00
9885;DHT22;4981;50.966;4.842;2022-10-30T10:26:20;17.10;1.00
9885;DHT22;4981;50.966;4.842;2022-10-30T10:31:44;17.40;1.00
9885;DHT22;4981;50.966;4.842;2022-10-30T10:34:48;17.30;1.00
9885;DHT22;4981;50.966;4.842;2022-10-30T10:37:26;17.90;1.00
9885;DHT22;4981;50.966;4.842;2022-10-30T10:40:13;17.70;1.00
9885;DHT22;4981;50.966;4.842;2022-10-30T10:42:51;17.70;1.00
9885;DHT22;4981;50.966;4.842;2022-10-30T10:45:28;17.90;1.00
9885;DHT22;4981;50.966;4.842;2022-10-30T10:48:26;18.00;1.00
9885;DHT22;4981;50.966;4.842;2022-10-30T10:51:00;18.00;1.00
9885;DHT22;4981;50.966;4.842;2022-10-30T10:53:33;18.10;1.00
9885;DHT22;4981;50.966;4.842;2022-10-30T10:56:03;18.40;1.00
9885;DHT22;4981;50.966;4.842;2022-10-30T10:58:34;18.50;1.00
9885;DHT22;4981;50.966;4.842;2022-10-30T11:01:07;18.60;1.00
9885;DHT22;4981;50.966;4.842;2022-10-30T11:03:48;18.80;1.00
9885;DHT22;4981;50.966;4.842;2022-10-30T11:06:20;19.30;1.00
9885;DHT22;4981;50.966;4.842;2022-10-30T11:08:48;19.10;1.00
9885;DHT22;4981;50.966;4.842;2022-10-30T11:11:17;19.10;1.00
9885;DHT22;4981;50.966;4.842;2022-10-30T11:13:45;19.20;1.00
9885;DHT22;4981;50.966;4.842;2022-10-30T11:16:23;19.00;1.00
9885;DHT22;4981;50.966;4.842;2022-10-30T11:18:54;19.00;1.00
9885;DHT22;4981;50.966;4.842;2022-10-30T11:21:25;19.00;1.00
9885;DHT22;4981;50.966;4.842;2022-10-30T11:23:53;19.00;1.00
9885;DHT22;4981;50.966;4.842;2022-10-30T11:26:30;19.00;1.00
9885;DHT22;4981;50.966;4.842;2022-10-30T11:29:03;19.10;1.00
9885;DHT22;4981;50.966;4.842;2022-10-30T11:31:33;19.10;1.00
9885;DHT22;4981;50.966;4.842;2022-10-30T11:34:27;19.00;1.00
9885;DHT22;4981;50.966;4.842;2022-10-30T11:36:59;18.80;1.00
9885;DHT22;4981;50.966;4.842;2022-10-30T11:39:28;19.20;1.00
9885;DHT22;4981;50.966;4.842;2022-10-30T11:41:58;19.20;1.00
9885;DHT22;4981;50.966;4.842;2022-10-30T11:44:30;19.20;1.00
9885;DHT22;4981;50.966;4.842;2022-10-30T11:46:58;19.10;1.00
9885;DHT22;4981;50.966;4.842;2022-10-30T11:49:33;19.00;1.00
9885;DHT22;4981;50.966;4.842;2022-10-30T11:52:03;19.10;1.00
9885;DHT22;4981;50.966;4.842;2022-10-30T11:54:35;19.20;1.00
9885;DHT22;4981;50.966;4.842;2022-10-30T11:57:04;19.20;1.00
9885;DHT22;4981;50.966;4.842;2022-10-30T11:59:45;19.30;1.00
9885;DHT22;4981;50.966;4.842;2022-10-30T12:02:21;19.60;1.00
9885;DHT22;4981;50.966;4.842;2022-10-30T12:04:51;19.70;1.00
9885;DHT22;4981;50.966;4.842;2022-10-30T12:07:25;19.50;1.00
9885;DHT22;4981;50.966;4.842;2022-10-30T12:09:54;19.70;1.00
9885;DHT22;4981;50.966;4.842;2022-10-30T12:12:23;19.70;1.00
9885;DHT22;4981;50.966;4.842;2022-10-30T12:14:52;19.60;1.00
9885;DHT22;4981;50.966;4.842;2022-10-30T12:17:21;19.70;1.00
9885;DHT22;4981;50.966;4.842;2022-10-30T12:19:50;19.80;1.00
9885;DHT22;4981;50.966;4.842;2022-10-30T12:22:29;19.80;1.00
9885;DHT22;4981;50.966;4.842;2022-10-30T12:24:58;20.10;1.00
9885;DHT22;4981;50.966;4.842;2022-10-30T12:27:28;20.00;1.00
9885;DHT22;4981;50.966;4.842;2022-10-30T12:30:03;20.20;1.00
9885;DHT22;4981;50.966;4.842;2022-10-30T12:32:37;20.00;1.00
9885;DHT22;4981;50.966;4.842;2022-10-30T12:37:55;20.00;1.00
9885;DHT22;4981;50.966;4.842;2022-10-30T12:40:26;19.90;1.00
9885;DHT22;4981;50.966;4.842;2022-10-30T12:43:02;19.80;1.00
9885;DHT22;4981;50.966;4.842;2022-10-30T12:45:33;19.90;1.00
9885;DHT22;4981;50.966;4.842;2022-10-30T12:48:07;19.90;1.00
9885;DHT22;4981;50.966;4.842;2022-10-30T12:50:42;19.80;1.00
9885;DHT22;4981;50.966;4.842;2022-10-30T12:53:21;20.00;1.00
9885;DHT22;4981;50.966;4.842;2022-10-30T12:55:54;19.90;1.00
9885;DHT22;4981;50.966;4.842;2022-10-30T12:58:30;19.90;1.00
9885;DHT22;4981;50.966;4.842;2022-10-30T13:01:11;19.90;1.00
9885;DHT22;4981;50.966;4.842;2022-10-30T13:03:48;20.00;1.00
9885;DHT22;4981;50.966;4.842;2022-10-30T13:06:19;20.30;1.00
9885;DHT22;4981;50.966;4.842;2022-10-30T13:09:11;20.10;1.00
9885;DHT22;4981;50.966;4.842;2022-10-30T13:11:47;20.30;1.00
9885;DHT22;4981;50.966;4.842;2022-10-30T13:14:18;20.10;1.00
9885;DHT22;4981;50.966;4.842;2022-10-30T13:16:45;20.30;1.00
9885;DHT22;4981;50.966;4.842;2022-10-30T13:19:12;20.70;1.00
9885;DHT22;4981;50.966;4.842;2022-10-30T13:21:45;21.10;1.00
9885;DHT22;4981;50.966;4.842;2022-10-30T13:24:20;21.40;1.00
9885;DHT22;4981;50.966;4.842;2022-10-30T13:26:54;21.60;1.00
9885;DHT22;4981;50.966;4.842;2022-10-30T13:29:25;22.00;1.00
9885;DHT22;4981;50.966;4.842;2022-10-30T13:32:04;22.20;1.00
9885;DHT22;4981;50.966;4.842;2022-10-30T13:34:39;22.20;1.00
9885;DHT22;4981;50.966;4.842;2022-10-30T13:37:13;22.10;1.00
9885;DHT22;4981;50.966;4.842;2022-10-30T13:39:51;22.30;1.00
9885;DHT22;4981;50.966;4.842;2022-10-30T13:42:32;22.00;1.00
9885;DHT22;4981;50.966;4.842;2022-10-30T13:45:18;21.40;1.00
9885;DHT22;4981;50.966;4.842;2022-10-30T13:47:58;22.00;1.00
9885;DHT22;4981;50.966;4.842;2022-10-30T13:50:39;22.00;1.00
9885;DHT22;4981;50.966;4.842;2022-10-30T13:53:13;22.30;1.00
9885;DHT22;4981;50.966;4.842;2022-10-30T13:55:44;22.00;1.00
9885;DHT22;4981;50.966;4.842;2022-10-30T13:58:15;22.00;1.00
9885;DHT22;4981;50.966;4.842;2022-10-30T14:00:57;22.00;1.00
9885;DHT22;4981;50.966;4.842;2022-10-30T14:03:36;21.80;1.00
9885;DHT22;4981;50.966;4.842;2022-10-30T14:06:11;21.70;1.00
9885;DHT22;4981;50.966;4.842;2022-10-30T14:08:46;21.70;1.00
9885;DHT22;4981;50.966;4.842;2022-10-30T14:11:15;21.70;1.00
9885;DHT22;4981;50.966;4.842;2022-10-30T14:13:51;21.50;1.00
9885;DHT22;4981;50.966;4.842;2022-10-30T14:16:40;21.30;1.00
9885;DHT22;4981;50.966;4.842;2022-10-30T14:19:08;21.10;1.00
9885;DHT22;4981;50.966;4.842;2022-10-30T14:21:38;21.00;1.00
9885;DHT22;4981;50.966;4.842;2022-10-30T14:24:12;21.00;1.00
9885;DHT22;4981;50.966;4.842;2022-10-30T14:26:45;20.80;1.00
9885;DHT22;4981;50.966;4.842;2022-10-30T14:29:44;20.70;1.00
9885;DHT22;4981;50.966;4.842;2022-10-30T14:35:36;20.80;1.00
9885;DHT22;4981;50.966;4.842;2022-10-30T14:38:22;20.20;1.00
9885;DHT22;4981;50.966;4.842;2022-10-30T14:41:05;21.10;1.00
9885;DHT22;4981;50.966;4.842;2022-10-30T14:43:47;21.10;1.00
9885;DHT22;4981;50.966;4.842;2022-10-30T14:46:21;21.00;1.00
9885;DHT22;4981;50.966;4.842;2022-10-30T14:48:57;21.20;1.00
9885;DHT22;4981;50.966;4.842;2022-10-30T14:51:32;20.90;1.00
9885;DHT22;4981;50.966;4.842;2022-10-30T14:54:07;20.80;1.00
9885;DHT22;4981;50.966;4.842;2022-10-30T14:56:43;20.90;1.00
9885;DHT22;4981;50.966;4.842;2022-10-30T14:59:34;20.50;1.00
9885;DHT22;4981;50.966;4.842;2022-10-30T15:02:27;20.80;1.00
9885;DHT22;4981;50.966;4.842;2022-10-30T15:05:08;20.90;1.00
9885;DHT22;4981;50.966;4.842;2022-10-30T15:07:40;20.80;1.00
9885;DHT22;4981;50.966;4.842;2022-10-30T15:10:16;20.60;1.00
9885;DHT22;4981;50.966;4.842;2022-10-30T15:13:04;20.60;1.00
9885;DHT22;4981;50.966;4.842;2022-10-30T15:15:34;20.20;1.00
9885;DHT22;4981;50.966;4.842;2022-10-30T15:18:06;20.00;1.00
9885;DHT22;4981;50.966;4.842;2022-10-30T15:20:34;19.80;1.00
9885;DHT22;4981;50.966;4.842;2022-10-30T15:23:06;19.80;1.00
9885;DHT22;4981;50.966;4.842;2022-10-30T15:25:37;19.70;1.00
9885;DHT22;4981;50.966;4.842;2022-10-30T15:28:14;19.70;1.00
9885;DHT22;4981;50.966;4.842;2022-10-30T15:31:00;19.60;1.00
9885;DHT22;4981;50.966;4.842;2022-10-30T15:33:29;19.60;1.00
9885;DHT22;4981;50.966;4.842;2022-10-30T15:35:57;19.40;1.00
9885;DHT22;4981;50.966;4.842;2022-10-30T15:38:24;19.30;1.00
9885;DHT22;4981;50.966;4.842;2022-10-30T15:40:56;19.20;1.00
9885;DHT22;4981;50.966;4.842;2022-10-30T15:43:28;19.10;1.00
9885;DHT22;4981;50.966;4.842;2022-10-30T15:45:56;19.20;1.00
9885;DHT22;4981;50.966;4.842;2022-10-30T15:48:27;19.00;1.00
9885;DHT22;4981;50.966;4.842;2022-10-30T15:50:58;19.00;1.00
9885;DHT22;4981;50.966;4.842;2022-10-30T15:53:33;19.50;1.00
9885;DHT22;4981;50.966;4.842;2022-10-30T15:56:01;18.90;1.00
9885;DHT22;4981;50.966;4.842;2022-10-30T15:58:30;18.90;1.00
9885;DHT22;4981;50.966;4.842;2022-10-30T16:01:01;18.70;1.00
9885;DHT22;4981;50.966;4.842;2022-10-30T16:03:30;18.70;1.00
9885;DHT22;4981;50.966;4.842;2022-10-30T16:06:15;18.60;1.00
9885;DHT22;4981;50.966;4.842;2022-10-30T16:08:44;18.50;1.00
9885;DHT22;4981;50.966;4.842;2022-10-30T16:11:11;18.40;1.00
9885;DHT22;4981;50.966;4.842;2022-10-30T16:13:39;18.50;1.00
9885;DHT22;4981;50.966;4.842;2022-10-30T16:16:12;18.30;1.00
9885;DHT22;4981;50.966;4.842;2022-10-30T16:18:41;18.30;1.00
9885;DHT22;4981;50.966;4.842;2022-10-30T16:21:14;18.30;1.00
9885;DHT22;4981;50.966;4.842;2022-10-30T16:23:47;17.50;1.00
9885;DHT22;4981;50.966;4.842;2022-10-30T16:26:24;17.90;1.00
9885;DHT22;4981;50.966;4.842;2022-10-30T16:28:52;18.00;1.00
9885;DHT22;4981;50.966;4.842;2022-10-30T16:31:19;18.00;1.00
9885;DHT22;4981;50.966;4.842;2022-10-30T16:33:48;18.00;1.00
9885;DHT22;4981;50.966;4.842;2022-10-30T16:36:17;17.90;1.00
9885;DHT22;4981;50.966;4.842;2022-10-30T16:38:46;17.90;1.00
9885;DHT22;4981;50.966;4.842;2022-10-30T16:41:15;18.30;1.00
9885;DHT22;4981;50.966;4.842;2022-10-30T16:43:43;17.80;1.00
9885;DHT22;4981;50.966;4.842;2022-10-30T16:46:34;17.60;1.00
9885;DHT22;4981;50.966;4.842;2022-10-30T16:49:07;17.40;1.00
9885;DHT22;4981;50.966;4.842;2022-10-30T16:51:38;17.50;1.00
9885;DHT22;4981;50.966;4.842;2022-10-30T16:54:12;17.60;1.00
9885;DHT22;4981;50.966;4.842;2022-10-30T16:56:43;17.50;1.00